createdAt,value
2022-12-03T00:03:22.579Z,23.00
2022-12-03T00:08:24.347Z,21.77
2022-12-03T00:13:26.007Z,23.15
2022-12-03T00:18:27.541Z,24.77
2022-12-03T00:23:29.067Z,24.60
2022-12-03T00:28:30.622Z,24.15
2022-12-03T00:33:32.149Z,23.33
2022-12-03T00:38:33.718Z,23.55
2022-12-03T00:43:35.274Z,24.30
2022-12-03T00:48:36.909Z,24.02
2022-12-03T00:53:38.680Z,24.10
2022-12-03T00:58:40.294Z,24.55
2022-12-03T01:03:41.868Z,25.75
2022-12-03T01:08:43.402Z,26.67
2022-12-03T01:13:44.942Z,25.15
2022-12-03T01:18:46.647Z,24.15
2022-12-03T01:23:48.330Z,24.83
2022-12-03T01:28:49.894Z,24.20
2022-12-03T01:33:51.491Z,24.80
2022-12-03T01:38:53.041Z,25.52
2022-12-03T01:43:55.248Z,24.63
2022-12-03T01:48:56.889Z,25.67
2022-12-03T01:54:00.651Z,25.67
2022-12-03T01:59:02.366Z,26.20
2022-12-03T02:04:04.007Z,25.33
2022-12-03T02:09:08.517Z,26.33
2022-12-03T02:14:13.954Z,26.30
2022-12-03T02:19:27.899Z,25.88
2022-12-03T02:24:42.012Z,24.65
2022-12-03T02:29:43.641Z,25.45
2022-12-03T02:34:46.137Z,25.40
2022-12-03T02:39:52.051Z,27.60
2022-12-03T02:44:53.945Z,25.80
2022-12-03T02:49:56.753Z,26.33
2022-12-03T02:54:59.140Z,26.70
2022-12-03T03:00:00.808Z,26.85
2022-12-03T03:05:03.236Z,25.48
2022-12-03T03:10:07.063Z,26.27
2022-12-03T03:15:10.121Z,26.25
2022-12-03T03:20:12.477Z,26.13
2022-12-03T03:25:17.379Z,26.55
2022-12-03T03:30:19.002Z,26.00
2022-12-03T03:35:20.982Z,24.67
2022-12-03T03:40:22.702Z,25.83
2022-12-03T03:45:28.984Z,26.25
2022-12-03T03:50:32.468Z,23.92
2022-12-03T03:55:34.632Z,25.52
2022-12-03T04:00:36.873Z,24.80
2022-12-03T04:05:38.546Z,23.75
2022-12-03T04:10:58.793Z,24.73
2022-12-03T04:16:00.358Z,23.08
2022-12-03T04:21:20.714Z,23.50
2022-12-03T04:26:40.703Z,23.60
2022-12-03T04:32:00.967Z,23.73
2022-12-03T04:37:03.127Z,23.33
2022-12-03T04:42:05.916Z,24.52
2022-12-03T04:47:10.796Z,22.02
2022-12-03T04:52:14.704Z,22.80
2022-12-03T04:57:16.362Z,22.27
2022-12-03T05:02:17.919Z,22.42
2022-12-03T05:07:19.527Z,21.52
2022-12-03T05:12:21.082Z,22.40
2022-12-03T05:17:22.658Z,22.30
2022-12-03T05:22:24.174Z,21.95
2022-12-03T05:27:25.735Z,20.90
2022-12-03T05:32:27.580Z,22.02
2022-12-03T05:37:29.106Z,21.08
2022-12-03T05:42:49.302Z,21.38
2022-12-03T05:47:52.240Z,21.15
2022-12-03T05:52:53.872Z,19.92
2022-12-03T05:57:55.574Z,20.40
2022-12-03T06:03:12.273Z,20.75
2022-12-03T06:08:13.940Z,20.35
2022-12-03T06:13:15.553Z,20.85
2022-12-03T06:18:17.308Z,19.85
2022-12-03T06:23:18.863Z,20.40
2022-12-03T06:28:21.036Z,19.10
2022-12-03T06:33:23.018Z,21.13
2022-12-03T06:38:24.511Z,19.20
2022-12-03T06:43:26.136Z,19.67
2022-12-03T06:48:27.728Z,20.67
2022-12-03T06:53:29.320Z,19.10
2022-12-03T06:58:30.906Z,20.30
2022-12-03T07:03:32.453Z,20.45
2022-12-03T07:08:34.092Z,19.23
2022-12-03T07:13:35.651Z,20.35
2022-12-03T07:18:37.169Z,19.63
2022-12-03T07:23:38.990Z,17.38
2022-12-03T07:28:40.500Z,18.67
2022-12-03T07:33:42.375Z,16.55
2022-12-03T07:38:44.045Z,17.60
2022-12-03T07:43:45.739Z,16.85
2022-12-03T07:54:27.867Z,17.77
2022-12-03T07:59:48.363Z,17.48
2022-12-03T08:05:29.785Z,18.15
2022-12-03T08:11:34.940Z,17.95
2022-12-03T08:23:27.798Z,18.80
2022-12-03T08:28:50.362Z,17.60
2022-12-03T08:33:54.538Z,18.00
2022-12-03T08:39:27.657Z,18.45
2022-12-03T08:44:38.638Z,18.48
2022-12-03T08:49:40.603Z,17.23
2022-12-03T08:54:43.127Z,17.73
2022-12-03T08:59:45.829Z,18.42
2022-12-03T09:04:47.603Z,17.55
2022-12-03T09:09:49.237Z,17.60
2022-12-03T09:14:50.966Z,18.27
2022-12-03T09:19:52.923Z,18.92
2022-12-03T09:24:54.705Z,15.90
2022-12-03T09:29:56.615Z,16.45
2022-12-03T09:34:58.310Z,16.40
2022-12-03T09:39:59.965Z,16.20
2022-12-03T09:45:03.361Z,15.25
2022-12-03T09:50:05.697Z,16.38
2022-12-03T09:55:23.178Z,16.25
2022-12-03T10:00:29.288Z,17.40
2022-12-03T10:05:30.924Z,16.85
2022-12-03T10:10:33.772Z,15.85
2022-12-03T10:15:35.344Z,15.77
2022-12-03T10:20:36.961Z,16.55
2022-12-03T10:25:54.673Z,15.05
2022-12-03T10:30:57.116Z,15.05
2022-12-03T10:36:15.548Z,14.85
2022-12-03T10:41:22.931Z,15.20
2022-12-03T10:46:24.546Z,15.27
2022-12-03T10:51:26.213Z,16.98
2022-12-03T10:56:28.288Z,19.48
2022-12-03T11:01:32.648Z,17.77
2022-12-03T11:06:34.438Z,18.17
2022-12-03T11:11:36.237Z,16.70
2022-12-03T11:16:40.644Z,16.25
2022-12-03T11:22:07.043Z,15.40
2022-12-03T11:27:18.920Z,16.92
2022-12-03T11:32:38.905Z,17.02
2022-12-03T11:37:40.811Z,16.60
2022-12-03T11:42:43.219Z,15.60
2022-12-03T11:47:47.709Z,16.17
2022-12-03T11:52:55.362Z,15.70
2022-12-03T11:58:17.905Z,15.55
2022-12-03T12:03:26.987Z,15.52
2022-12-03T12:08:29.197Z,15.88
2022-12-03T12:13:30.686Z,15.07
2022-12-03T12:18:44.743Z,15.30
2022-12-03T12:23:46.273Z,14.80
2022-12-03T12:28:47.797Z,15.35
2022-12-03T12:33:49.340Z,13.55
2022-12-03T12:38:50.919Z,14.55
2022-12-03T12:43:52.503Z,14.68
2022-12-03T12:48:59.337Z,14.13
2022-12-03T12:54:02.011Z,13.10
2022-12-03T12:59:14.664Z,13.98
2022-12-03T13:04:19.322Z,12.10
2022-12-03T13:09:25.401Z,13.88
2022-12-03T13:14:32.933Z,14.38
2022-12-03T13:19:43.552Z,10.07
2022-12-03T13:24:54.946Z,12.77
2022-12-03T13:30:13.594Z,14.23
2022-12-03T13:35:22.786Z,12.93
2022-12-03T13:40:35.131Z,13.15
2022-12-03T13:45:39.435Z,12.45
2022-12-03T13:50:46.101Z,12.20
2022-12-03T13:56:00.684Z,12.40
2022-12-03T14:01:02.365Z,11.77
2022-12-03T14:06:04.018Z,13.80
2022-12-03T14:11:05.684Z,12.93
2022-12-03T14:16:07.417Z,13.38
2022-12-03T14:21:09.142Z,12.82
2022-12-03T14:26:10.707Z,13.23
2022-12-03T14:31:12.440Z,13.32
2022-12-03T14:36:14.032Z,14.35
2022-12-03T14:41:34.182Z,13.45
2022-12-03T14:46:35.735Z,13.88
2022-12-03T14:51:37.428Z,13.07
2022-12-03T14:56:40.003Z,14.25
2022-12-03T15:01:41.622Z,12.02
2022-12-03T15:06:43.379Z,13.65
2022-12-03T15:11:46.687Z,12.98
2022-12-03T15:16:48.494Z,13.63
2022-12-03T15:21:50.091Z,12.55
2022-12-03T15:26:53.341Z,12.45
2022-12-03T15:31:54.933Z,12.93
2022-12-03T15:36:56.554Z,13.18
2022-12-03T15:41:58.111Z,12.63
2022-12-03T15:46:59.638Z,12.57
2022-12-03T15:52:01.127Z,11.98
2022-12-03T15:57:02.633Z,12.93
2022-12-03T16:02:04.563Z,13.07
2022-12-03T16:07:07.140Z,12.63
2022-12-03T16:12:09.051Z,13.27
2022-12-03T16:17:10.671Z,12.95
2022-12-03T16:22:12.607Z,11.48
2022-12-03T16:27:14.139Z,13.57
2022-12-03T16:32:15.671Z,12.68
2022-12-03T16:37:17.282Z,13.43
2022-12-03T16:42:22.302Z,11.98
2022-12-03T16:47:25.198Z,12.48
2022-12-03T16:52:29.579Z,13.23
2022-12-03T16:57:33.860Z,13.05
2022-12-03T17:02:35.704Z,12.40
2022-12-03T17:07:37.360Z,13.98
2022-12-03T17:13:07.569Z,14.02
2022-12-03T17:18:00.510Z,14.95
2022-12-03T17:23:02.077Z,13.95
2022-12-03T17:28:03.772Z,14.07
2022-12-03T17:33:05.406Z,14.40
2022-12-03T17:38:06.992Z,13.27
2022-12-03T17:43:08.542Z,14.75
2022-12-03T17:48:10.279Z,14.68
2022-12-03T17:53:11.862Z,14.77
2022-12-03T17:58:13.825Z,15.00
2022-12-03T18:03:15.595Z,13.63
2022-12-03T18:08:17.550Z,14.48
2022-12-03T18:13:19.438Z,14.93
2022-12-03T18:18:21.030Z,14.70
2022-12-03T18:23:22.791Z,15.20
2022-12-03T18:28:24.503Z,15.10
2022-12-03T18:33:26.328Z,15.65
2022-12-03T18:38:30.478Z,16.13
2022-12-03T18:43:32.318Z,16.23
2022-12-03T18:48:33.873Z,15.35
2022-12-03T18:53:35.440Z,16.23
2022-12-03T18:58:37.962Z,14.82
2022-12-03T19:03:39.525Z,15.35
2022-12-03T19:08:42.285Z,14.73
2022-12-03T19:13:43.847Z,15.45
2022-12-03T19:18:45.573Z,16.45
2022-12-03T19:24:22.207Z,16.63
2022-12-03T19:29:10.598Z,16.40
2022-12-03T19:34:12.166Z,15.55
2022-12-03T19:39:13.741Z,16.95
2022-12-03T19:44:16.770Z,16.30
2022-12-03T19:49:20.855Z,16.30
2022-12-03T19:54:22.638Z,14.90
2022-12-03T19:59:24.291Z,15.32
2022-12-03T20:04:26.607Z,15.13
2022-12-03T20:09:28.206Z,13.40
2022-12-03T20:14:31.046Z,14.35
2022-12-03T20:19:32.638Z,15.35
2022-12-03T20:24:34.218Z,15.40
2022-12-03T20:29:35.779Z,14.40
2022-12-03T20:34:37.314Z,15.20
2022-12-03T20:39:38.848Z,15.05
2022-12-03T20:44:40.378Z,14.43
2022-12-03T20:49:41.976Z,13.10
2022-12-03T20:54:43.614Z,14.30
2022-12-03T20:59:45.128Z,14.85
2022-12-03T21:04:46.716Z,15.07
2022-12-03T21:09:48.251Z,14.35
2022-12-03T21:14:49.867Z,14.45
2022-12-03T21:19:51.481Z,14.52
2022-12-03T21:24:53.122Z,13.38
2022-12-03T21:29:55.210Z,14.43
2022-12-03T21:34:56.983Z,14.65
2022-12-03T21:39:58.524Z,13.23
2022-12-03T21:45:00.106Z,13.80
2022-12-03T21:50:02.358Z,13.00
2022-12-03T21:55:04.123Z,13.40
2022-12-03T22:00:07.688Z,13.68
2022-12-03T22:05:11.970Z,13.68
2022-12-03T22:10:13.593Z,13.00
2022-12-03T22:15:19.090Z,13.48
2022-12-03T22:20:21.301Z,13.48
2022-12-03T22:25:22.842Z,13.32
2022-12-03T22:30:24.608Z,12.55
2022-12-03T22:35:26.184Z,12.95
2022-12-03T22:40:27.714Z,12.55
2022-12-03T22:45:29.259Z,12.57
2022-12-03T22:50:30.792Z,13.18
2022-12-03T22:55:32.332Z,12.48
2022-12-03T23:00:39.679Z,12.07
2022-12-03T23:05:41.500Z,9.77
2022-12-03T23:10:46.312Z,12.23
2022-12-03T23:15:51.228Z,12.63
2022-12-03T23:20:54.590Z,11.57
2022-12-03T23:25:57.416Z,12.10
2022-12-03T23:30:59.304Z,12.30
2022-12-03T23:36:05.339Z,11.63
2022-12-03T23:41:09.510Z,12.25
2022-12-03T23:46:19.515Z,12.57
2022-12-03T23:51:24.333Z,12.63
2022-12-03T23:56:29.213Z,11.90
